Nearby METAR Reports


KEDC - Austin Exec, Texas, USA
Distance from station: SW 16mi, 25km
Updated: Sun, 22-Jul-2018 9:15am CDT

 Wind from SW
Wind: SW 9 mph , 15 km/h
Temperature: 82°F , 28°C
Heat Index: 89°F , 32°C
Dew Point: 75°F , 24°C
Humidity: 79%
Barometer: 30.00 inHg , 1015.9 hPa
Visibility: 7 miles , 11 km
2018/07/22 14:15 KEDC 221415Z AUTO 23008KT 7SM 28/24 A3000 RMK AO2
KGTU - Georgetown, Texas, USA
Distance from station: WNW 17mi, 28km
Updated: Sun, 22-Jul-2018 8:56am CDT
Clear
Clear
 Wind from SW
Wind: SW 8 mph , 13 km/h
Temperature: 82°F , 28°C
Heat Index: 87°F , 31°C
Dew Point: 73°F , 23°C
Humidity: 74%
Barometer: 30.01 inHg , 1016.3 hPa
Clouds: Clear
Visibility: 10 miles , 16 km
2018/07/22 13:56 KGTU 221356Z 22007KT 10SM CLR 28/23 A3001 RMK AO2 SLP152 T02780233
 
KATT - Austin/Mabry, Texas, USA
Distance from station: SW 28mi, 45km
Updated: Sun, 22-Jul-2018 8:51am CDT
Clear
Clear
 Wind from calm
Wind: Calm
Temperature: 82°F , 28°C
Heat Index: 87°F , 31°C
Dew Point: 73°F , 23°C
Humidity: 74%
Barometer: 30.00 inHg , 1015.9 hPa
Clouds: Clear
Visibility: 9 miles , 14 km
2018/07/22 13:51 KATT 221351Z AUTO 00000KT 9SM CLR 28/23 A3000 RMK AO2 SLP143 T02780228
KAUS - Austin, Texas, USA
Distance from station: SSW 32mi, 51km
Updated: Sun, 22-Jul-2018 8:53am CDT
Few Clouds
Few Clouds
 Wind from SSW
Wind: SSW 6 mph , 9 km/h
Temperature: 82°F , 28°C
Heat Index: 89°F , 32°C
Dew Point: 75°F , 24°C
Humidity: 79%
Barometer: 29.99 inHg , 1015.6 hPa
Clouds: Few Clouds
Visibility: 8 miles , 13 km
Cloud details: Few Clouds 25000 ft
2018/07/22 13:53 KAUS 221353Z 21005KT 8SM FEW250 28/24 A2999 RMK AO2 SLP142 T02830239 VISNO RWY17R $
 
KRYW - Lago Vista, Texas, USA
Distance from station: W 33mi, 54km
Updated: Sun, 22-Jul-2018 9:15am CDT
Clear
Clear
 Wind from WSW
Wind: WSW 9 mph , 15 km/h
Temperature: 82°F , 28°C
Heat Index: 86°F , 30°C
Dew Point: 72°F , 22°C
Humidity: 70%
Barometer: 30.02 inHg , 1016.6 hPa
Clouds: Clear
Visibility: 10 miles , 16 km
2018/07/22 14:15 KRYW 221415Z AUTO 24008KT 10SM CLR 28/22 A3002 RMK AO2 T02820222
KILE - Killeen Muni, Texas, USA
Distance from station: NNW 37mi, 59km
Updated: Sun, 22-Jul-2018 8:56am CDT
Clear
Clear
 Wind from SSW
Wind: SSW 12 mph , 19 km/h
Temperature: 82°F , 28°C
Heat Index: 87°F , 31°C
Dew Point: 73°F , 23°C
Humidity: 74%
Barometer: 29.99 inHg , 1015.6 hPa
Clouds: Clear
Visibility: 10 miles , 16 km
2018/07/22 13:56 KILE 221356Z AUTO 21010KT 10SM CLR 28/23 A2999 RMK AO2 SLP153 T02830233
 
KTPL - Temple/Miller, Texas, USA
Distance from station: N 38mi, 61km
Updated: Sun, 22-Jul-2018 8:51am CDT
Clear
Clear
 Wind from S
Wind: S 10 mph , 17 km/h
Temperature: 82°F , 28°C
Heat Index: 87°F , 31°C
Dew Point: 73°F , 23°C
Humidity: 74%
Barometer: 29.98 inHg , 1015.2 hPa
Clouds: Clear
Visibility: 10 miles , 16 km
2018/07/22 13:51 KTPL 221351Z AUTO 19009KT 10SM CLR 28/23 A2998 RMK AO2 SLP149 T02830233
KGYB - Giddings-Lee, Texas, USA
Distance from station: SE 39mi, 62km
Updated: Sun, 22-Jul-2018 9:15am CDT
Clear
Clear
 Wind from SW
Wind: SW 7 mph , 11 km/h
Temperature: 81°F , 27°C
Heat Index: 85°F , 29°C
Dew Point: 72°F , 22°C
Humidity: 74%
Barometer: 30.01 inHg , 1016.3 hPa
Clouds: Clear
Visibility: 7 miles , 11 km
2018/07/22 14:15 KGYB 221415Z AUTO 23006KT 7SM CLR 27/22 A3001 RMK AO2 T02700224
 
KGRK - Gray/Ft Hood, Texas, USA
Distance from station: NW 42mi, 67km
Updated: Sun, 22-Jul-2018 8:58am CDT
Clear
Clear
 Wind from S
Wind: S 9 mph , 15 km/h
Temperature: 82°F , 28°C
Heat Index: 86°F , 30°C
Dew Point: 72°F , 22°C
Humidity: 70%
Barometer: 29.98 inHg , 1015.2 hPa
Clouds: Clear
Visibility: 10 miles , 16 km
2018/07/22 13:58 KGRK 221358Z AUTO 19008KT 10SM CLR 28/22 A2998 RMK AO2 SLP139 T02790220
KHLR - Ft Hood/Killeen, Texas, USA
Distance from station: NNW 42mi, 67km
Updated: Sun, 22-Jul-2018 8:58am CDT
Clear
Clear
 Wind from SW
Wind: SW 10 mph , 17 km/h
Temperature: 82°F , 28°C
Heat Index: 86°F , 30°C
Dew Point: 72°F , 22°C
Humidity: 70%
Barometer: 29.95 inHg , 1014.2 hPa
Clouds: Clear
Visibility: 10 miles , 16 km
2018/07/22 13:58 KHLR 221358Z AUTO 22009KT 10SM CLR 28/22 A2995 RMK AO2 SLP128 T02830222
 
KRWV - Caldwell, Texas, USA
Distance from station: E 43mi, 69km
Updated: Sun, 22-Jul-2018 9:15am CDT
Clear
Clear
 Wind from SW
Wind: SW 12 mph , 19 km/h
Temperature: 82°F , 28°C
Heat Index: 89°F , 32°C
Dew Point: 75°F , 24°C
Humidity: 79%
Barometer: 29.98 inHg , 1015.2 hPa
Clouds: Clear
Visibility: 10 miles , 16 km
2018/07/22 14:15 KRWV 221415Z AUTO 22010KT 10SM CLR 28/24 A2998 RMK AO2 T02810238
KBMQ - Burnet, Texas, USA
Distance from station: WNW 50mi, 80km
Updated: Sun, 22-Jul-2018 8:53am CDT
Clear
Clear
 Wind from SW
Wind: SW 10 mph , 17 km/h, Gust: 16 mph , 26 km/h
Temperature: 82°F , 28°C
Heat Index: 86°F , 30°C
Dew Point: 72°F , 22°C
Humidity: 70%
Barometer: 30.03 inHg , 1016.9 hPa
Clouds: Clear
Visibility: 10 miles , 16 km
2018/07/22 13:53 KBMQ 221353Z AUTO 23009G14KT 10SM CLR 28/22 A3003 RMK AO2 SLP148 T02830217